Time;durP1;ratioP1;P1;durP2;ratioP2;P2;SDS_P1;SDS_P2;PMS_P1;PMS_P2;Temp;Humidity;BMP_temperature;BMP_pressure;BME280_temperature;BME280_humidity;BME280_pressure;Samples;Min_cycle;Max_cycle;Signal;HPM_P1;HPM_P2
2021/03/11 00:00:22;;;;;;;28.30;12.38;;;;;;;-6.63;73.25;100331.69;3525567;28;20059;-49
2021/03/11 00:02:03;;;;;;;24.60;12.13;;;;;;;-6.68;72.73;100333.78;3523029;28;20086;-48
2021/03/11 00:03:45;;;;;;;25.95;11.43;;;;;;;-6.71;72.51;100336.06;3524143;28;20054;-49
2021/03/11 00:05:26;;;;;;;27.20;12.18;;;;;;;-6.77;72.96;100335.47;3524596;28;20424;-49
2021/03/11 00:07:08;;;;;;;29.42;12.25;;;;;;;-6.81;73.44;100335.94;3520362;28;20425;-48
2021/03/11 00:08:50;;;;;;;23.25;10.77;;;;;;;-6.84;73.16;100341.56;3511957;28;20125;-49
2021/03/11 00:10:32;;;;;;;25.75;11.80;;;;;;;-6.88;73.64;100343.69;3520536;28;20516;-47
2021/03/11 00:12:13;;;;;;;31.20;12.18;;;;;;;-6.94;73.83;100336.44;3525122;28;20051;-50
2021/03/11 00:13:55;;;;;;;28.17;12.88;;;;;;;-6.95;74.55;100341.34;3521516;28;20051;-48
2021/03/11 00:15:38;;;;;;;26.77;12.05;;;;;;;-6.97;74.90;100345.38;3523821;28;20047;-48
2021/03/11 00:17:19;;;;;;;27.95;12.57;;;;;;;-6.98;74.99;100336.88;3524512;28;20055;-51
2021/03/11 00:19:01;;;;;;;28.08;11.98;;;;;;;-7.00;75.12;100339.25;3522376;28;20059;-47
2021/03/11 00:20:42;;;;;;;28.25;11.82;;;;;;;-7.00;74.78;100335.84;3525885;28;20062;-47
2021/03/11 00:22:32;;;;;;;29.63;12.23;;;;;;;-7.03;75.25;100339.00;3522251;28;20048;-47
2021/03/11 00:24:14;;;;;;;28.75;12.48;;;;;;;-7.04;75.23;100336.34;3524904;28;20059;-49
2021/03/11 00:25:55;;;;;;;29.92;12.80;;;;;;;-7.05;75.42;100326.97;3522982;28;20557;-47
2021/03/11 00:27:38;;;;;;;29.75;11.93;;;;;;;-7.08;75.61;100327.59;3522396;28;20425;-47
2021/03/11 00:29:20;;;;;;;25.98;11.52;;;;;;;-7.10;75.89;100334.13;3512093;28;20102;-47
2021/03/11 00:31:01;;;;;;;25.80;11.63;;;;;;;-7.14;76.11;100324.47;3517241;28;20071;-55
2021/03/11 00:32:43;;;;;;;32.50;12.90;;;;;;;-7.13;76.34;100330.44;3525734;28;20089;-56
2021/03/11 00:34:25;;;;;;;32.58;12.38;;;;;;;-7.16;76.52;100325.97;3522586;28;20044;-47
2021/03/11 00:36:07;;;;;;;25.65;11.98;;;;;;;-7.16;76.67;100327.63;3524580;28;20567;-47
2021/03/11 00:37:49;;;;;;;34.00;12.70;;;;;;;-7.18;76.88;100326.59;3523363;28;20075;-48
2021/03/11 00:39:30;;;;;;;29.65;11.93;;;;;;;-7.18;76.96;100324.94;3521358;28;20052;-48
2021/03/11 00:41:12;;;;;;;29.60;13.25;;;;;;;-7.18;77.08;100324.94;3525287;28;20048;-48
2021/03/11 00:42:53;;;;;;;26.67;12.88;;;;;;;-7.20;77.27;100317.25;3520140;28;20072;-48
2021/03/11 00:44:35;;;;;;;30.08;12.55;;;;;;;-7.22;77.39;100318.72;3511605;28;20520;-47
2021/03/11 00:46:16;;;;;;;32.30;12.68;;;;;;;-7.23;77.49;100327.03;3521589;28;20044;-48
2021/03/11 00:47:58;;;;;;;26.42;12.10;;;;;;;-7.24;77.53;100324.34;3523461;28;20047;-48
2021/03/11 00:49:39;;;;;;;34.78;13.98;;;;;;;-7.24;77.58;100314.28;3523325;28;20424;-48
2021/03/11 00:51:21;;;;;;;35.92;14.55;;;;;;;-7.25;77.60;100320.97;3521499;28;20047;-48
2021/03/11 00:53:08;;;;;;;30.83;13.70;;;;;;;-7.26;77.55;100319.19;3511558;28;20056;-47
2021/03/11 00:54:49;;;;;;;31.70;13.48;;;;;;;-7.29;77.30;100312.97;3518802;28;20044;-48
2021/03/11 00:56:31;;;;;;;28.40;12.23;;;;;;;-7.32;77.41;100312.69;3525340;28;20428;-48
2021/03/11 00:58:12;;;;;;;31.58;13.88;;;;;;;-7.34;77.49;100312.53;3522159;28;20052;-46
2021/03/11 00:59:54;;;;;;;29.25;13.40;;;;;;;-7.36;77.62;100309.00;3524658;28;20048;-49
2021/03/11 01:01:35;;;;;;;33.55;12.90;;;;;;;-7.37;77.67;100302.16;3522804;28;20074;-47
2021/03/11 01:03:17;;;;;;;28.52;14.07;;;;;;;-7.38;77.14;100305.44;3522046;28;20093;-47
2021/03/11 01:04:58;;;;;;;35.42;13.70;;;;;;;-7.41;77.08;100303.50;3511332;28;20501;-47
2021/03/11 01:06:40;;;;;;;32.67;14.32;;;;;;;-7.42;77.45;100303.38;3518105;28;20052;-47
2021/03/11 01:08:21;;;;;;;28.83;12.77;;;;;;;-7.43;77.91;100300.00;3525459;28;20048;-48
2021/03/11 01:10:03;;;;;;;34.58;14.90;;;;;;;-7.44;78.04;100298.19;3521196;28;20503;-47
2021/03/11 01:11:45;;;;;;;36.28;14.25;;;;;;;-7.44;78.13;100300.72;3524119;28;20052;-47
2021/03/11 01:13:26;;;;;;;31.70;12.70;;;;;;;-7.46;77.71;100299.69;3514623;28;20493;-49
2021/03/11 01:15:09;;;;;;;30.73;13.80;;;;;;;-7.49;77.38;100296.88;3521007;28;20069;-48
2021/03/11 01:16:52;;;;;;;35.50;15.75;;;;;;;-7.51;77.82;100295.84;3511303;28;20052;-47
2021/03/11 01:18:34;;;;;;;30.08;13.90;;;;;;;-7.50;78.11;100295.13;3518173;28;20052;-48
2021/03/11 01:20:18;;;;;;;38.60;14.68;;;;;;;-7.49;78.37;100294.34;3525073;28;20672;-48
2021/03/11 01:21:59;;;;;;;30.63;13.75;;;;;;;-7.51;78.56;100288.28;3522048;28;20051;-47
2021/03/11 01:23:40;;;;;;;35.80;15.98;;;;;;;-7.50;78.72;100292.59;3523022;28;20066;-47
2021/03/11 01:25:22;;;;;;;31.73;15.32;;;;;;;-7.51;78.61;100287.41;3522769;28;20436;-47
2021/03/11 01:27:04;;;;;;;36.75;15.50;;;;;;;-7.51;78.63;100290.81;3521560;28;20044;-48
2021/03/11 01:28:45;;;;;;;27.70;14.68;;;;;;;-7.51;78.68;100295.84;3525377;28;20086;-47
2021/03/11 01:30:27;;;;;;;39.00;15.43;;;;;;;-7.51;78.65;100287.41;3521756;28;20047;-47
2021/03/11 01:32:09;;;;;;;32.80;15.80;;;;;;;-7.51;78.65;100293.31;3524734;28;20066;-48
2021/03/11 01:33:51;;;;;;;39.08;16.52;;;;;;;-7.52;78.20;100295.69;3522035;28;20575;-47
2021/03/11 01:35:32;;;;;;;34.67;15.57;;;;;;;-7.54;77.72;100294.66;3522759;28;20048;-47
2021/03/11 01:37:14;;;;;;;38.30;16.88;;;;;;;-7.59;77.63;100295.13;3522823;28;20087;-50
2021/03/11 01:38:55;;;;;;;37.03;15.93;;;;;;;-7.59;77.94;100292.63;3519901;28;20541;-47
2021/03/11 01:40:36;;;;;;;41.92;16.40;;;;;;;-7.61;78.00;100291.59;3524999;28;20509;-47
2021/03/11 01:42:18;;;;;;;42.30;18.52;;;;;;;-7.64;77.51;100298.84;3521424;28;20043;-47
2021/03/11 01:43:59;;;;;;;36.78;15.20;;;;;;;-7.67;76.73;100297.66;3525135;28;20102;-47
2021/03/11 01:45:42;;;;;;;32.60;15.05;;;;;;;-7.70;77.12;100299.88;3520582;28;20516;-47
2021/03/11 01:47:23;;;;;;;34.33;15.15;;;;;;;-7.74;77.63;100295.31;3523387;28;20466;-47
2021/03/11 01:49:05;;;;;;;39.72;17.17;;;;;;;-7.76;77.95;100297.66;3522457;28;20520;-47
2021/03/11 01:50:47;;;;;;;34.60;15.18;;;;;;;-7.80;77.77;100293.09;3521475;28;20051;-47
2021/03/11 01:52:28;;;;;;;34.15;15.57;;;;;;;-7.84;77.50;100299.47;3524799;28;20055;-48
2021/03/11 01:54:11;;;;;;;38.20;15.02;;;;;;;-7.87;77.48;100304.19;3520041;28;20055;-47
2021/03/11 01:55:52;;;;;;;39.13;15.35;;;;;;;-7.92;78.14;100302.88;3524988;28;20052;-47
2021/03/11 01:57:34;;;;;;;38.40;15.85;;;;;;;-7.93;78.68;100302.72;3520824;28;20054;-47
2021/03/11 01:59:15;;;;;;;39.78;16.27;;;;;;;-7.92;78.99;100317.97;3522358;28;20314;-48
2021/03/11 02:00:57;;;;;;;40.13;16.73;;;;;;;-7.91;79.20;100313.81;3522196;28;20083;-48
2021/03/11 02:02:40;;;;;;;41.70;16.67;;;;;;;-7.91;79.48;100314.72;3521380;28;20043;-46
2021/03/11 02:04:22;;;;;;;41.55;17.08;;;;;;;-7.90;79.46;100311.44;3524970;28;20231;-47
2021/03/11 02:06:04;;;;;;;31.67;15.93;;;;;;;-7.90;79.46;100311.44;3519737;28;20047;-47
2021/03/11 02:07:46;;;;;;;35.20;15.75;;;;;;;-7.90;79.44;100313.09;3524196;28;20055;-47
2021/03/11 02:09:27;;;;;;;41.80;16.40;;;;;;;-7.90;79.72;100310.56;3520751;28;20075;-47
2021/03/11 02:11:13;;;;;;;35.67;15.43;;;;;;;-7.90;80.05;100308.94;3522288;28;20072;-47
2021/03/11 02:13:12;;;;;;;37.78;17.70;;;;;;;-7.88;80.17;100309.09;3511471;28;20056;-47
2021/03/11 02:15:02;;;;;;;37.30;15.02;;;;;;;-7.89;80.25;100313.25;3514299;28;20071;-50
2021/03/11 02:16:49;;;;;;;35.17;15.15;;;;;;;-7.89;80.19;100312.34;3510675;28;20428;-47
2021/03/11 02:18:36;;;;;;;40.67;16.45;;;;;;;-7.90;80.20;100311.44;3520917;28;20109;-47
2021/03/11 02:20:34;;;;;;;39.05;16.58;;;;;;;-7.91;80.21;100313.81;3522522;28;20515;-47
2021/03/11 02:22:21;;;;;;;31.98;14.70;;;;;;;-7.92;80.22;100312.06;3524411;28;20585;-47
2021/03/11 02:24:45;;;;;;;36.83;15.82;;;;;;;-7.95;80.02;100317.66;3514041;28;20040;-47
2021/03/11 02:26:58;;;;;;;33.47;14.63;;;;;;;-7.95;79.94;100320.19;3509894;28;20056;-47
2021/03/11 02:28:56;;;;;;;42.75;16.02;;;;;;;-7.96;79.97;100320.94;3522755;28;20058;-47
2021/03/11 02:30:40;;;;;;;30.25;14.88;;;;;;;-7.98;80.29;100318.28;3521215;28;20047;-47
2021/03/11 02:32:24;;;;;;;37.47;16.02;;;;;;;-7.98;80.55;100317.41;3520848;28;20048;-49
2021/03/11 02:34:10;;;;;;;37.85;16.70;;;;;;;-7.97;80.53;100315.00;3524589;28;20043;-47
2021/03/11 02:35:52;;;;;;;40.45;15.88;;;;;;;-7.96;80.49;100319.31;3521013;28;20051;-47
2021/03/11 02:37:38;;;;;;;36.60;15.77;;;;;;;-7.96;80.55;100321.81;3522567;28;20047;-47
2021/03/11 02:39:22;;;;;;;34.25;15.25;;;;;;;-7.96;80.45;100324.34;3521030;28;20048;-47
2021/03/11 02:41:04;;;;;;;42.60;17.27;;;;;;;-7.97;80.44;100324.19;3520902;28;20048;-58
2021/03/11 02:42:47;;;;;;;39.22;16.10;;;;;;;-7.98;80.60;100323.31;3510764;28;20052;-48
2021/03/11 02:44:30;;;;;;;42.30;16.67;;;;;;;-7.98;80.87;100315.75;3514506;28;20472;-47
2021/03/11 02:46:12;;;;;;;36.70;18.20;;;;;;;-7.99;80.65;100316.50;3510174;28;20802;-48
2021/03/11 02:47:56;;;;;;;39.05;14.95;;;;;;;-7.98;80.49;100327.47;3520239;28;20046;-49
2021/03/11 02:49:38;;;;;;;;;;;;;;;-7.99;80.59;100320.63;3524006;28;20055;-48
2021/03/11 02:51:21;;;;;;;51.67;14.52;;;;;;;-7.98;80.64;100324.94;3511260;28;20018;-48
2021/03/11 02:53:05;;;;;;;35.47;15.65;;;;;;;-7.97;80.87;100319.16;3513710;28;20055;-47
2021/03/11 02:54:47;;;;;;;;;;;;;;;-7.96;80.76;100318.44;3510674;28;20052;-47
2021/03/11 02:56:28;;;;;;;31.98;14.98;;;;;;;-7.94;80.70;100333.69;3515881;28;19931;-47
2021/03/11 02:58:12;;;;;;;37.03;15.60;;;;;;;-7.96;80.72;100321.81;3524071;28;20090;-48
2021/03/11 02:59:55;;;;;;;33.17;15.60;;;;;;;-7.94;80.69;100319.47;3520169;28;20081;-48
2021/03/11 03:01:38;;;;;;;36.83;15.77;;;;;;;-7.93;80.46;100326.25;3521507;28;20138;-48
2021/03/11 03:03:21;;;;;;;35.72;14.95;;;;;;;-7.94;80.28;100321.97;3510932;28;20056;-47
2021/03/11 03:05:04;;;;;;;38.30;17.23;;;;;;;-7.93;80.44;100325.38;3514426;28;20052;-47
2021/03/11 03:06:46;;;;;;;47.58;17.02;;;;;;;-7.96;80.06;100321.81;3524137;28;20047;-47
2021/03/11 03:08:28;;;;;;;39.33;17.13;;;;;;;-7.94;80.07;100318.59;3519181;28;20048;-48
2021/03/11 03:10:11;;;;;;;37.83;14.95;;;;;;;-7.97;80.04;100319.16;3522689;28;20051;-48
2021/03/11 03:11:54;;;;;;;38.33;15.95;;;;;;;-7.96;79.85;100324.34;3521315;28;20066;-46
2021/03/11 03:13:36;;;;;;;35.97;15.18;;;;;;;-7.98;79.81;100324.94;3519172;28;20483;-48
2021/03/11 03:15:21;;;;;;;36.30;15.15;;;;;;;-8.00;79.51;100319.75;3522661;28;20055;-48
2021/03/11 03:17:03;;;;;;;37.90;15.77;;;;;;;-8.02;79.28;100317.81;3519053;28;20180;-47
2021/03/11 03:18:45;;;;;;;36.22;16.58;;;;;;;-8.05;79.49;100318.44;3524301;28;20055;-47
2021/03/11 03:20:27;;;;;;;33.00;15.55;;;;;;;-8.07;79.57;100321.50;3514759;28;20044;-47
2021/03/11 03:22:10;;;;;;;33.67;15.20;;;;;;;-8.09;79.74;100321.38;3510929;28;20501;-48
2021/03/11 03:23:53;;;;;;;35.25;15.73;;;;;;;-8.10;79.96;100318.72;3511809;28;20048;-47
2021/03/11 03:25:34;;;;;;;34.17;14.90;;;;;;;-8.11;79.84;100324.47;3513627;28;20393;-59
2021/03/11 03:27:18;;;;;;;35.55;15.55;;;;;;;-8.14;79.51;100317.50;3509672;28;20117;-58
2021/03/11 03:28:59;;;;;;;37.72;15.07;;;;;;;-8.17;79.72;100313.06;3515969;28;20055;-58
2021/03/11 03:30:42;;;;;;;35.38;14.73;;;;;;;-8.20;80.01;100315.28;3524044;28;20101;-58
2021/03/11 03:32:23;;;;;;;37.37;15.77;;;;;;;-8.20;80.22;100320.31;3520142;28;20496;-59
2021/03/11 03:34:05;;;;;;;36.28;14.35;;;;;;;-8.21;80.36;100316.03;3523881;28;20287;-58
2021/03/11 03:35:47;;;;;;;31.38;14.93;;;;;;;-8.20;80.59;100317.81;3514087;28;20101;-58
2021/03/11 03:37:29;;;;;;;31.10;13.77;;;;;;;-8.19;80.72;100316.19;3514602;28;20047;-47
2021/03/11 03:39:11;;;;;;;35.88;14.25;;;;;;;-8.17;80.41;100315.59;3525748;28;20054;-47
2021/03/11 03:40:52;;;;;;;29.35;13.15;;;;;;;-8.15;80.11;100313.22;3521387;28;20048;-48
2021/03/11 03:42:39;;;;;;;31.00;13.68;;;;;;;-8.13;79.77;100320.94;3526234;28;20147;-47
2021/03/11 03:44:23;;;;;;;29.77;13.60;;;;;;;-8.10;79.32;100326.28;3522920;28;20051;-47
2021/03/11 03:46:09;;;;;;;27.98;13.00;;;;;;;-8.09;79.17;100313.81;3525202;28;20054;-47
2021/03/11 03:47:51;;;;;;;40.25;16.48;;;;;;;-8.04;79.48;100319.31;3513360;28;20055;-47
2021/03/11 03:49:33;;;;;;;30.75;13.85;;;;;;;-8.01;79.50;100323.00;3516379;28;20087;-47
2021/03/11 03:51:17;;;;;;;40.97;17.10;;;;;;;-7.97;79.78;100321.66;3526206;28;20061;-47
2021/03/11 03:53:04;;;;;;;38.05;16.48;;;;;;;-7.93;79.66;100317.81;3516582;28;20082;-47
2021/03/11 03:54:48;;;;;;;40.28;17.27;;;;;;;-7.90;79.46;100320.66;3513560;28;20062;-48
2021/03/11 03:56:34;;;;;;;38.28;16.70;;;;;;;-7.88;79.42;100321.69;3522989;28;20043;-47
2021/03/11 03:58:17;;;;;;;29.85;13.98;;;;;;;-7.87;78.88;100318.44;3523225;28;20101;-47
2021/03/11 03:59:59;;;;;;;33.47;14.77;;;;;;;-7.87;78.50;100321.81;3525948;28;20054;-47
2021/03/11 04:01:42;;;;;;;34.90;14.48;;;;;;;-7.86;78.50;100326.09;3521200;28;20501;-46
2021/03/11 04:03:25;;;;;;;33.08;14.50;;;;;;;-7.85;78.52;100324.50;3525980;28;20090;-46
2021/03/11 04:05:08;;;;;;;35.28;13.57;;;;;;;-7.85;78.38;100324.50;3521754;28;20051;-47
2021/03/11 04:06:52;;;;;;;28.83;13.27;;;;;;;-7.87;78.01;100321.81;3525147;28;20047;-47
2021/03/11 04:08:34;;;;;;;35.00;13.85;;;;;;;-7.86;78.32;100323.59;3514175;28;20052;-48
2021/03/11 04:10:16;;;;;;;30.80;13.02;;;;;;;-7.84;78.75;100326.25;3514845;28;20051;-47
2021/03/11 04:11:58;;;;;;;29.00;11.98;;;;;;;-7.83;78.64;100335.59;3525922;28;20067;-47
2021/03/11 04:13:41;;;;;;;24.00;11.32;;;;;;;-7.82;78.72;100340.78;3517949;28;20056;-47
2021/03/11 04:15:23;;;;;;;27.70;11.93;;;;;;;-7.81;78.54;100335.00;3512021;28;20075;-47
2021/03/11 04:17:07;;;;;;;26.30;11.50;;;;;;;-7.80;78.74;100335.91;3515112;28;20056;-47
2021/03/11 04:18:51;;;;;;;30.00;12.65;;;;;;;-7.80;78.46;100335.91;3514537;28;20051;-47
2021/03/11 04:20:33;;;;;;;27.85;12.15;;;;;;;-7.80;78.43;100341.81;3523717;28;20431;-46
2021/03/11 04:22:15;;;;;;;27.73;12.32;;;;;;;-7.79;78.07;100338.56;3522610;28;20051;-46
2021/03/11 04:23:57;;;;;;;28.67;12.68;;;;;;;-7.75;78.29;100336.31;3526037;28;20051;-48
2021/03/11 04:25:42;;;;;;;31.27;12.30;;;;;;;-7.71;78.47;100335.91;3521279;28;20051;-47
2021/03/11 04:27:25;;;;;;;23.08;11.13;;;;;;;-7.68;78.30;100327.00;3523775;28;20043;-47
2021/03/11 04:29:07;;;;;;;25.70;11.32;;;;;;;-7.65;78.16;100339.00;3513670;28;20466;-47
2021/03/11 04:30:49;;;;;;;30.42;11.48;;;;;;;-7.62;78.12;100334.25;3515201;28;20043;-47
2021/03/11 04:32:32;;;;;;;30.55;11.75;;;;;;;-7.60;78.22;100328.59;3524465;28;20051;-47
2021/03/11 04:34:15;;;;;;;25.13;10.93;;;;;;;-7.56;77.76;100336.47;3522091;28;20109;-47
2021/03/11 04:35:57;;;;;;;25.45;11.68;;;;;;;-7.52;78.13;100334.41;3525304;28;20544;-47
2021/03/11 04:37:39;;;;;;;25.75;11.10;;;;;;;-7.48;78.06;100336.47;3522111;28;20051;-46
2021/03/11 04:39:22;;;;;;;25.33;11.43;;;;;;;-7.44;77.98;100343.56;3524948;28;20086;-46
2021/03/11 04:41:04;;;;;;;25.25;12.00;;;;;;;-7.41;77.74;100335.38;3512357;28;20048;-47
2021/03/11 04:42:46;;;;;;;28.40;11.68;;;;;;;-7.39;77.69;100334.78;3513895;28;20059;-47
2021/03/11 04:44:28;;;;;;;27.00;12.30;;;;;;;-7.35;77.99;100330.91;3511687;28;20087;-47
2021/03/11 04:46:09;;;;;;;25.95;10.70;;;;;;;-7.32;77.84;100332.84;3515445;28;20060;-47
2021/03/11 04:47:51;;;;;;;26.00;11.77;;;;;;;-7.28;77.78;100335.78;3525584;28;20135;-47
2021/03/11 04:49:34;;;;;;;21.90;10.48;;;;;;;-7.24;77.42;100340.38;3521890;28;20481;-48
2021/03/11 04:51:16;;;;;;;23.08;10.18;;;;;;;-7.19;77.52;100338.28;3523054;28;20524;-47
2021/03/11 04:52:59;;;;;;;24.58;11.55;;;;;;;-7.13;77.60;100340.53;3523073;28;20165;-47
2021/03/11 04:54:40;;;;;;;22.17;10.40;;;;;;;-7.08;77.34;100341.81;3522585;28;20105;-47
2021/03/11 04:56:22;;;;;;;22.88;10.13;;;;;;;-7.04;76.75;100341.38;3524987;28;20051;-47
2021/03/11 04:58:04;;;;;;;24.50;9.88;;;;;;;-6.98;76.61;100346.09;3521859;28;20522;-47
2021/03/11 04:59:45;;;;;;;19.23;9.48;;;;;;;-6.94;76.43;100346.53;3525019;28;20067;-47
2021/03/11 05:01:30;;;;;;;24.15;10.50;;;;;;;-6.91;75.69;100344.28;3513396;28;20074;-46
2021/03/11 05:03:14;;;;;;;21.48;9.18;;;;;;;-6.87;75.52;100340.41;3513355;28;20078;-46
2021/03/11 05:04:56;;;;;;;17.40;9.02;;;;;;;-6.84;75.11;100339.06;3511321;28;20052;-47
2021/03/11 05:06:37;;;;;;;19.77;9.30;;;;;;;-6.80;74.66;100342.75;3517572;28;20052;-47
2021/03/11 05:08:19;;;;;;;22.58;9.32;;;;;;;-6.75;74.60;100333.97;3525386;28;20071;-47
2021/03/11 05:10:00;;;;;;;22.85;9.30;;;;;;;-6.68;74.87;100336.31;3520587;28;20141;-47
2021/03/11 05:11:42;;;;;;;22.15;9.27;;;;;;;-6.57;74.93;100336.41;3523499;28;20052;-47
2021/03/11 05:13:24;;;;;;;17.27;8.10;;;;;;;-6.48;75.04;100337.25;3520141;28;20516;-47
2021/03/11 05:15:06;;;;;;;21.35;8.75;;;;;;;-6.39;74.36;100343.16;3521501;28;20079;-47
2021/03/11 05:16:47;;;;;;;19.58;9.43;;;;;;;-6.30;74.20;100331.38;3511143;28;20106;-47
2021/03/11 05:18:29;;;;;;;21.42;10.02;;;;;;;-6.19;74.12;100334.84;3517140;28;20044;-47
2021/03/11 05:20:12;;;;;;;21.05;9.20;;;;;;;-6.07;74.66;100338.50;3525175;28;20397;-47
2021/03/11 05:21:54;;;;;;;20.88;8.88;;;;;;;-5.94;74.75;100344.63;3513862;28;20048;-46
2021/03/11 05:23:35;;;;;;;21.98;9.02;;;;;;;-5.84;74.82;100342.19;3511579;28;20052;-47
2021/03/11 05:25:17;;;;;;;24.48;9.50;;;;;;;-5.71;75.19;100347.56;3522912;28;20082;-58
2021/03/11 05:26:59;;;;;;;23.15;9.65;;;;;;;-5.60;75.55;100351.06;3521450;28;20398;-58
2021/03/11 05:28:40;;;;;;;24.50;10.40;;;;;;;-5.52;75.31;100351.72;3511812;28;20056;-58
2021/03/11 05:30:22;;;;;;;21.63;9.77;;;;;;;-5.42;74.49;100346.72;3514523;28;20389;-58
2021/03/11 05:32:04;;;;;;;21.38;9.95;;;;;;;-5.31;73.89;100362.84;3511560;28;20052;-58
2021/03/11 05:33:46;;;;;;;21.50;10.05;;;;;;;-5.20;73.68;100356.19;3521762;28;20044;-58
2021/03/11 05:35:28;;;;;;;23.52;10.05;;;;;;;-5.10;73.47;100357.09;3522516;28;20050;-58
2021/03/11 05:37:09;;;;;;;21.33;9.70;;;;;;;-4.96;72.84;100357.44;3522483;28;20047;-58
2021/03/11 05:38:51;;;;;;;22.58;10.20;;;;;;;-4.85;72.52;100355.78;3522537;28;20052;-58
2021/03/11 05:40:33;;;;;;;25.85;11.00;;;;;;;-4.73;72.00;100359.34;3524382;28;20062;-58
2021/03/11 05:42:19;;;;;;;17.65;9.27;;;;;;;-4.62;72.21;100353.53;3521368;28;20051;-57
2021/03/11 05:44:00;;;;;;;20.63;8.35;;;;;;;-4.50;71.26;100348.63;3524868;28;20052;-58
2021/03/11 05:45:42;;;;;;;20.30;9.45;;;;;;;-4.41;70.04;100356.13;3520284;28;20197;-58
2021/03/11 05:47:31;;;;;;;20.48;8.52;;;;;;;-4.35;69.34;100354.09;3523408;28;20047;-58
2021/03/11 05:49:15;;;;;;;20.58;8.93;;;;;;;-4.27;69.65;100358.16;3523098;28;20573;-58
2021/03/11 05:50:57;;;;;;;17.40;8.50;;;;;;;-4.20;69.15;100355.38;3518764;28;20060;-58
2021/03/11 05:52:39;;;;;;;19.80;8.27;;;;;;;-4.10;69.05;100357.03;3510879;28;20509;-58
2021/03/11 05:54:20;;;;;;;23.92;9.38;;;;;;;-4.05;69.01;100358.25;3517685;28;20039;-58
2021/03/11 05:56:02;;;;;;;19.52;8.88;;;;;;;-3.99;68.60;100356.25;3524202;28;20059;-58
2021/03/11 05:57:45;;;;;;;18.15;8.85;;;;;;;-3.89;68.02;100362.06;3521494;28;20083;-58
2021/03/11 05:59:26;;;;;;;20.92;9.88;;;;;;;-3.82;67.46;100357.66;3522603;28;20397;-57
2021/03/11 06:01:08;;;;;;;28.30;12.02;;;;;;;-3.80;66.43;100353.59;3522601;28;20096;-57
2021/03/11 06:02:56;;;;;;;25.88;10.65;;;;;;;-3.75;66.80;100366.59;3518970;28;20051;-57
2021/03/11 06:04:39;;;;;;;22.80;11.50;;;;;;;-3.71;66.92;100362.66;3510881;28;20098;-57
2021/03/11 06:06:21;;;;;;;27.10;9.93;;;;;;;-3.65;66.97;100364.06;3518580;28;20047;-58
2021/03/11 06:08:08;;;;;;;31.67;11.85;;;;;;;-3.64;65.93;100370.00;3524116;28;20051;-58
2021/03/11 06:09:54;;;;;;;25.77;11.00;;;;;;;-3.65;65.27;100364.06;3521970;28;20138;-58
2021/03/11 06:11:37;;;;;;;25.40;10.57;;;;;;;-3.64;66.08;100363.31;3521093;28;20054;-57
2021/03/11 06:13:19;;;;;;;21.63;9.75;;;;;;;-3.52;66.19;100367.59;3512029;28;20134;-58
2021/03/11 06:15:07;;;;;;;24.33;11.30;;;;;;;-3.43;65.68;100376.84;3519897;28;20079;-58
2021/03/11 06:16:53;;;;;;;23.25;9.88;;;;;;;-3.40;64.68;100364.38;3523352;28;20047;-58
2021/03/11 06:18:36;;;;;;;21.77;9.75;;;;;;;-3.34;64.54;100368.16;3520957;28;20451;-59
2021/03/11 06:20:18;;;;;;;25.20;11.45;;;;;;;-3.33;64.22;100375.91;3521650;28;20047;-59
2021/03/11 06:22:00;;;;;;;23.60;10.52;;;;;;;-3.24;64.62;100370.69;3511255;28;20144;-56
2021/03/11 06:23:41;;;;;;;27.45;11.52;;;;;;;-3.16;63.17;100373.81;3514214;28;20052;-59
2021/03/11 06:25:24;;;;;;;26.58;12.23;;;;;;;-3.14;62.38;100378.25;3510529;28;20416;-58
2021/03/11 06:27:13;;;;;;;28.30;11.13;;;;;;;-3.14;62.41;100379.94;3520618;28;20060;-58
2021/03/11 06:28:55;;;;;;;28.42;11.75;;;;;;;-3.11;62.52;100380.16;3523182;28;20496;-59
2021/03/11 06:30:40;;;;;;;24.80;11.13;;;;;;;-3.09;62.44;100381.19;3521739;28;20416;-57
2021/03/11 06:32:23;;;;;;;29.45;11.65;;;;;;;-3.03;62.99;100387.59;3520789;28;20508;-58
2021/03/11 06:34:20;;;;;;;28.25;12.55;;;;;;;-2.98;62.74;100389.63;3524419;28;20083;-58
2021/03/11 06:36:11;;;;;;;23.88;11.95;;;;;;;-2.95;61.63;100388.22;3520695;28;20055;-56
2021/03/11 06:37:52;;;;;;;23.30;11.30;;;;;;;-2.87;62.14;100389.69;3523680;28;20052;-56
2021/03/11 06:39:35;;;;;;;28.77;12.02;;;;;;;-2.79;61.71;100389.41;3512136;28;20062;-58
2021/03/11 06:41:18;;;;;;;25.55;11.35;;;;;;;-2.76;61.25;100390.53;3513623;28;20393;-57
2021/03/11 06:43:10;;;;;;;23.13;10.75;;;;;;;-2.67;60.95;100385.28;3510272;28;20101;-58
2021/03/11 06:44:51;;;;;;;23.92;10.77;;;;;;;-2.65;60.50;100382.09;3519304;28;20050;-58
2021/03/11 06:46:34;;;;;;;21.52;10.60;;;;;;;-2.60;60.16;100394.25;3523650;28;20104;-58
2021/03/11 06:48:20;;;;;;;24.92;11.35;;;;;;;-2.57;60.08;100395.38;3521582;28;20055;-58
2021/03/11 06:50:03;;;;;;;31.00;10.00;;;;;;;-2.50;60.48;100389.13;3519675;28;20044;-58
2021/03/11 06:51:45;;;;;;;20.88;9.25;;;;;;;-2.37;59.59;100383.34;3510124;28;20081;-58
2021/03/11 06:53:27;;;;;;;23.40;10.15;;;;;;;-2.24;59.40;100386.06;3516600;28;20161;-57
2021/03/11 06:55:10;;;;;;;25.08;10.65;;;;;;;-2.12;59.09;100389.53;3524398;28;20048;-58
2021/03/11 06:56:51;;;;;;;22.55;10.20;;;;;;;-2.00;58.96;100391.19;3520618;28;20078;-58
2021/03/11 06:58:33;;;;;;;19.77;9.27;;;;;;;-1.92;58.51;100391.00;3523059;28;20052;-58
2021/03/11 07:00:19;;;;;;;25.08;10.07;;;;;;;-1.95;56.47;100393.31;3521789;28;20059;-59
2021/03/11 07:02:01;;;;;;;18.33;9.23;;;;;;;-2.01;57.06;100394.53;3519463;28;20044;-59
2021/03/11 07:03:43;;;;;;;21.45;10.13;;;;;;;-2.02;56.87;100396.16;3510423;28;20052;-58
2021/03/11 07:05:27;;;;;;;23.15;9.20;;;;;;;-2.00;57.07;100396.28;3517334;28;20053;-59
2021/03/11 07:07:17;;;;;;;22.10;9.80;;;;;;;-1.95;57.30;100390.75;3523533;28;20058;-58
2021/03/11 07:09:00;;;;;;;16.00;8.57;;;;;;;-1.91;55.52;100386.78;3519562;28;20055;-58
2021/03/11 07:10:42;;;;;;;20.27;10.68;;;;;;;-1.92;55.56;100388.47;3522134;28;20055;-58
2021/03/11 07:12:23;;;;;;;22.63;10.13;;;;;;;-1.81;56.88;100386.72;3522613;28;20059;-58
2021/03/11 07:14:04;;;;;;;23.17;10.05;;;;;;;-1.68;56.10;100391.06;3517536;28;20048;-58
2021/03/11 07:15:55;;;;;;;24.58;9.88;;;;;;;-1.46;57.08;100390.09;3524105;28;20058;-58
2021/03/11 07:17:41;;;;;;;24.23;9.63;;;;;;;-1.29;55.82;100387.13;3519091;28;20052;-58
2021/03/11 07:19:22;;;;;;;30.45;12.55;;;;;;;-1.11;55.05;100390.09;3523175;28;20059;-59
2021/03/11 07:21:04;;;;;;;28.33;11.32;;;;;;;-0.91;55.23;100396.59;3521556;28;20055;-59
2021/03/11 07:23:03;;;;;;;17.02;8.55;;;;;;;-0.86;52.39;100396.94;3520847;28;20056;-58
2021/03/11 07:24:45;;;;;;;19.90;8.73;;;;;;;-0.85;51.67;100396.13;3512027;28;20421;-58
2021/03/11 07:26:27;;;;;;;17.67;8.52;;;;;;;-0.88;51.23;100398.50;3520411;28;20050;-58
2021/03/11 07:28:10;;;;;;;20.35;8.60;;;;;;;-0.86;52.70;100397.81;3521821;28;20051;-58
2021/03/11 07:30:01;;;;;;;21.27;8.88;;;;;;;-0.78;52.74;100394.16;3520301;28;20048;-58
2021/03/11 07:31:44;;;;;;;16.58;8.15;;;;;;;-0.65;53.56;100400.09;3520640;28;20052;-58
2021/03/11 07:33:27;;;;;;;25.08;9.07;;;;;;;-0.46;54.07;100400.59;3523960;28;20067;-58
2021/03/11 07:35:09;;;;;;;20.30;8.88;;;;;;;-0.25;53.15;100393.56;3516471;28;20044;-59
2021/03/11 07:36:57;;;;;;;13.18;6.82;;;;;;;-0.21;49.90;100395.53;3509939;28;20505;-58
2021/03/11 07:38:39;;;;;;;18.95;7.20;;;;;;;-0.23;51.15;100401.31;3519923;28;20424;-59
2021/03/11 07:40:22;;;;;;;20.23;8.15;;;;;;;-0.23;50.24;100393.66;3521557;28;20565;-58
2021/03/11 07:42:06;;;;;;;17.05;8.50;;;;;;;-0.30;51.02;100394.91;3522437;28;20489;-59
2021/03/11 07:43:48;;;;;;;15.40;7.18;;;;;;;-0.15;52.20;100397.59;3520362;28;20105;-58
2021/03/11 07:45:30;;;;;;;21.45;7.85;;;;;;;0.04;50.69;100400.59;3523815;28;20048;-59
2021/03/11 07:47:12;;;;;;;14.63;7.75;;;;;;;0.12;49.89;100405.34;3518912;28;20047;-59
2021/03/11 07:48:55;;;;;;;16.05;7.72;;;;;;;0.06;48.70;100398.16;3523044;28;20709;-59
2021/03/11 07:50:38;;;;;;;15.48;7.53;;;;;;;0.15;50.21;100390.25;3511526;28;20048;-59